createdAt,value
2023-02-07T00:01:37.059Z,64.78
2023-02-07T00:04:06.400Z,61.13
2023-02-07T00:06:36.549Z,60.17
2023-02-07T00:09:08.570Z,58.35
2023-02-07T00:11:40.455Z,60.00
2023-02-07T00:14:10.688Z,58.90
2023-02-07T00:16:39.106Z,59.45
2023-02-07T00:19:07.787Z,59.85
2023-02-07T00:21:36.163Z,60.38
2023-02-07T00:24:06.745Z,62.58
2023-02-07T00:26:35.290Z,64.38
2023-02-07T00:29:03.934Z,59.88
2023-02-07T00:31:33.972Z,59.33
2023-02-07T00:34:04.614Z,61.20
2023-02-07T00:36:34.383Z,59.80
2023-02-07T00:39:07.665Z,57.20
2023-02-07T00:41:36.230Z,67.28
2023-02-07T00:44:05.185Z,69.20
2023-02-07T00:46:33.789Z,70.93
2023-02-07T00:49:03.094Z,73.28
2023-02-07T00:51:31.502Z,79.88
2023-02-07T00:54:00.548Z,77.30
2023-02-07T00:56:31.498Z,76.75
2023-02-07T00:59:00.222Z,74.95
2023-02-07T01:01:29.003Z,74.43
2023-02-07T01:03:57.868Z,70.65
2023-02-07T01:06:28.123Z,76.60
2023-02-07T01:08:58.099Z,76.40
2023-02-07T01:11:27.215Z,76.80
2023-02-07T01:13:57.147Z,74.78
2023-02-07T01:16:29.185Z,75.60
2023-02-07T01:18:58.162Z,75.35
2023-02-07T01:21:27.948Z,72.53
2023-02-07T01:23:57.360Z,75.28
2023-02-07T01:26:25.925Z,71.03
2023-02-07T01:28:55.193Z,77.00
2023-02-07T01:31:25.352Z,79.28
2023-02-07T01:33:57.437Z,76.13
2023-02-07T01:36:27.054Z,80.15
2023-02-07T01:38:56.133Z,72.53
2023-02-07T01:41:26.635Z,76.35
2023-02-07T01:43:57.390Z,72.57
2023-02-07T01:48:57.468Z,69.18
2023-02-07T01:51:27.463Z,65.85
2023-02-07T01:53:57.606Z,66.15
2023-02-07T01:56:31.892Z,66.55
2023-02-07T01:59:02.836Z,67.25
2023-02-07T02:01:32.849Z,65.50
2023-02-07T02:04:01.318Z,65.88
2023-02-07T02:06:31.989Z,68.95
2023-02-07T02:09:02.118Z,70.20
2023-02-07T02:11:51.192Z,70.20
2023-02-07T02:14:31.667Z,70.13
2023-02-07T02:17:07.988Z,76.15
2023-02-07T02:19:57.425Z,78.50
2023-02-07T02:22:50.901Z,79.13
2023-02-07T02:25:42.672Z,83.85
2023-02-07T02:28:42.492Z,83.53
2023-02-07T02:31:21.988Z,83.75
2023-02-07T02:33:53.520Z,87.25
2023-02-07T02:36:28.774Z,87.07
2023-02-07T02:39:03.558Z,86.78
2023-02-07T02:41:34.309Z,86.32
2023-02-07T02:46:36.003Z,85.53
2023-02-07T02:49:07.438Z,88.80
2023-02-07T02:54:04.242Z,81.13
2023-02-07T02:56:45.249Z,77.68
2023-02-07T03:01:58.928Z,80.07
2023-02-07T03:04:51.334Z,78.00
2023-02-07T03:07:34.268Z,78.47
2023-02-07T03:10:08.896Z,76.35
2023-02-07T03:12:43.386Z,76.18
2023-02-07T03:15:18.528Z,76.00
2023-02-07T03:17:49.161Z,75.75
2023-02-07T03:20:23.598Z,76.32
2023-02-07T03:22:53.074Z,71.20
2023-02-07T03:25:22.621Z,73.75
2023-02-07T03:27:51.182Z,75.55
2023-02-07T03:30:22.344Z,76.45
2023-02-07T03:32:52.932Z,68.70
2023-02-07T03:35:25.761Z,69.93
2023-02-07T03:37:56.629Z,67.47
2023-02-07T03:42:56.424Z,66.18
2023-02-07T03:45:25.486Z,65.78
2023-02-07T03:47:53.854Z,68.88
2023-02-07T03:50:24.594Z,68.57
2023-02-07T03:52:52.788Z,68.70
2023-02-07T03:55:21.548Z,73.22
2023-02-07T03:57:49.788Z,74.28
2023-02-07T04:00:18.747Z,72.57
2023-02-07T04:02:47.227Z,77.50
2023-02-07T04:05:15.841Z,78.25
2023-02-07T04:07:46.134Z,82.65
2023-02-07T04:10:14.844Z,90.55
2023-02-07T04:12:43.282Z,90.95
2023-02-07T04:15:12.954Z,94.43
2023-02-07T04:17:41.271Z,94.25
2023-02-07T04:20:12.680Z,93.85
2023-02-07T04:22:40.951Z,95.65
2023-02-07T04:25:11.138Z,94.88
2023-02-07T04:27:39.467Z,94.03
2023-02-07T04:30:09.093Z,95.80
2023-02-07T04:32:37.918Z,93.38
2023-02-07T04:35:06.995Z,90.97
2023-02-07T04:37:35.464Z,95.80
2023-02-07T04:40:04.382Z,91.13
2023-02-07T04:42:34.123Z,90.00
2023-02-07T04:45:03.018Z,90.57
2023-02-07T04:47:31.498Z,91.63
2023-02-07T04:50:00.238Z,88.40
2023-02-07T04:52:28.612Z,88.72
2023-02-07T04:54:57.311Z,85.32
2023-02-07T04:57:25.654Z,90.35
2023-02-07T04:59:55.460Z,91.50
2023-02-07T05:02:24.430Z,90.72
2023-02-07T05:04:53.015Z,91.97
2023-02-07T05:07:21.610Z,91.45
2023-02-07T05:09:50.159Z,94.07
2023-02-07T05:12:18.402Z,86.50
2023-02-07T05:14:47.020Z,92.80
2023-02-07T05:17:16.873Z,86.15
2023-02-07T05:19:45.501Z,89.82
2023-02-07T05:22:13.792Z,82.47
2023-02-07T05:24:42.333Z,97.93
2023-02-07T05:27:10.714Z,105.70
2023-02-07T05:29:39.401Z,101.82
2023-02-07T05:32:25.446Z,95.68
2023-02-07T05:34:55.422Z,97.38
2023-02-07T05:37:23.847Z,99.22
2023-02-07T05:39:52.553Z,95.55
2023-02-07T05:42:20.851Z,95.10
2023-02-07T05:44:49.773Z,92.88
2023-02-07T05:47:18.142Z,93.90
2023-02-07T05:49:46.908Z,106.15
2023-02-07T05:52:16.555Z,96.72
2023-02-07T05:54:45.192Z,99.85
2023-02-07T05:57:13.481Z,96.65
2023-02-07T05:59:42.041Z,96.90
2023-02-07T06:02:10.502Z,101.53
2023-02-07T06:04:39.238Z,109.50
2023-02-07T06:07:07.491Z,107.05
2023-02-07T06:09:37.618Z,117.78
2023-02-07T06:12:06.492Z,125.10
2023-02-07T06:14:35.442Z,121.57
2023-02-07T06:17:03.756Z,122.05
2023-02-07T06:19:32.307Z,124.85
2023-02-07T06:22:01.020Z,120.93
2023-02-07T06:24:29.535Z,160.23
2023-02-07T06:26:59.493Z,154.05
2023-02-07T06:29:28.249Z,129.50
2023-02-07T06:31:56.845Z,109.13
2023-02-07T06:34:25.810Z,100.63
2023-02-07T06:36:54.180Z,97.78
2023-02-07T06:39:22.993Z,99.95
2023-02-07T06:41:51.374Z,100.30
2023-02-07T06:44:21.204Z,102.60
2023-02-07T06:46:49.507Z,101.28
2023-02-07T06:49:18.029Z,99.97
2023-02-07T06:51:46.473Z,98.68
2023-02-07T06:54:15.040Z,99.43
2023-02-07T06:56:43.281Z,98.70
2023-02-07T06:59:12.096Z,92.28
2023-02-07T07:01:42.319Z,104.97
2023-02-07T07:04:11.136Z,108.07
2023-02-07T07:06:39.709Z,100.43
2023-02-07T07:09:08.455Z,98.90
2023-02-07T07:11:39.186Z,113.28
2023-02-07T07:14:07.695Z,96.28
2023-02-07T07:16:35.990Z,98.57
2023-02-07T07:19:05.988Z,129.73
2023-02-07T07:21:34.316Z,140.65
2023-02-07T07:24:02.804Z,133.43
2023-02-07T07:26:46.597Z,135.13
2023-02-07T07:29:17.228Z,147.10
2023-02-07T07:31:45.706Z,164.85
2023-02-07T07:34:16.093Z,137.88
2023-02-07T07:36:44.583Z,105.78
2023-02-07T07:39:14.764Z,103.82
2023-02-07T07:41:42.983Z,94.65
2023-02-07T07:44:11.797Z,91.53
2023-02-07T07:46:40.209Z,91.72
2023-02-07T07:49:09.062Z,90.63
2023-02-07T07:51:39.654Z,94.80
2023-02-07T07:54:08.504Z,89.45
2023-02-07T07:56:36.774Z,94.68
2023-02-07T07:59:05.927Z,97.95
2023-02-07T08:01:37.030Z,92.82
2023-02-07T08:04:06.462Z,103.13
2023-02-07T08:06:34.738Z,98.30
2023-02-07T08:09:05.383Z,103.93
2023-02-07T08:11:33.837Z,109.13
2023-02-07T08:14:02.457Z,96.63
2023-02-07T08:16:30.920Z,102.38
2023-02-07T08:18:59.527Z,98.43
2023-02-07T08:21:28.083Z,95.55
2023-02-07T08:23:56.707Z,101.13
2023-02-07T08:26:26.529Z,102.07
2023-02-07T08:28:55.269Z,110.57
2023-02-07T08:31:23.675Z,105.38
2023-02-07T08:33:52.548Z,105.75
2023-02-07T08:36:20.989Z,95.90
2023-02-07T08:38:49.497Z,89.70
2023-02-07T08:41:17.921Z,89.30
2023-02-07T08:43:48.094Z,86.35
2023-02-07T08:46:16.621Z,85.43
2023-02-07T08:48:45.288Z,85.78
2023-02-07T08:51:13.669Z,85.35
2023-02-07T08:53:42.240Z,91.00
2023-02-07T08:56:11.155Z,87.55
2023-02-07T08:58:41.102Z,90.25
2023-02-07T09:01:11.665Z,87.43
2023-02-07T09:03:40.522Z,90.75
2023-02-07T09:06:10.721Z,90.93
2023-02-07T09:08:39.516Z,90.82
2023-02-07T09:11:09.447Z,88.65
2023-02-07T09:13:38.608Z,86.97
2023-02-07T09:16:07.175Z,87.38
2023-02-07T09:18:37.195Z,84.97
2023-02-07T09:21:06.218Z,84.38
2023-02-07T09:23:35.934Z,80.63
2023-02-07T09:26:06.669Z,80.10
2023-02-07T09:28:36.335Z,82.00
2023-02-07T09:31:09.956Z,79.00
2023-02-07T09:33:40.332Z,78.10
2023-02-07T09:36:19.361Z,82.13
2023-02-07T09:38:49.190Z,85.32
2023-02-07T09:41:23.339Z,91.82
2023-02-07T09:44:01.208Z,90.03
2023-02-07T09:46:33.070Z,93.28
2023-02-07T09:49:06.386Z,101.70
2023-02-07T09:51:35.899Z,101.93
2023-02-07T09:54:07.163Z,103.88
2023-02-07T09:56:37.294Z,102.00
2023-02-07T09:59:07.834Z,102.07
2023-02-07T10:01:38.292Z,107.13
2023-02-07T10:04:23.499Z,111.70
2023-02-07T10:06:55.272Z,102.93
2023-02-07T10:09:28.282Z,113.18
2023-02-07T10:12:02.285Z,118.88
2023-02-07T10:14:57.990Z,118.00
2023-02-07T10:17:38.555Z,117.93
2023-02-07T10:20:26.530Z,115.18
2023-02-07T10:23:00.940Z,122.53
2023-02-07T10:25:37.193Z,124.50
2023-02-07T10:28:24.838Z,123.05
2023-02-07T10:30:55.849Z,116.90
2023-02-07T10:33:28.612Z,112.35
2023-02-07T10:35:59.047Z,111.13
2023-02-07T10:38:32.495Z,116.90
2023-02-07T10:41:04.861Z,111.70
2023-02-07T10:43:35.506Z,106.75
2023-02-07T10:46:07.094Z,106.38
2023-02-07T10:51:12.712Z,100.85
2023-02-07T10:53:54.530Z,101.65
2023-02-07T10:56:26.222Z,102.75
2023-02-07T10:58:55.345Z,102.78
2023-02-07T11:01:26.291Z,105.32
2023-02-07T11:03:55.464Z,107.78
2023-02-07T11:06:29.709Z,105.00
2023-02-07T11:09:21.103Z,102.90
2023-02-07T11:11:51.150Z,103.25
2023-02-07T11:14:26.674Z,107.05
2023-02-07T11:16:56.247Z,111.35
2023-02-07T11:19:27.033Z,109.15
2023-02-07T11:22:08.922Z,108.60
2023-02-07T11:24:38.767Z,103.13
2023-02-07T11:27:09.652Z,103.15
2023-02-07T11:29:45.760Z,104.43
2023-02-07T11:32:15.338Z,98.43
2023-02-07T11:34:49.542Z,97.63
2023-02-07T11:37:26.070Z,102.13
2023-02-07T11:39:56.659Z,97.35
2023-02-07T11:42:27.901Z,94.95
2023-02-07T11:44:56.464Z,92.97
2023-02-07T11:47:28.170Z,90.82
2023-02-07T11:49:58.503Z,84.15
2023-02-07T11:52:29.526Z,84.90
2023-02-07T11:54:59.544Z,91.05
2023-02-07T11:57:29.960Z,88.43
2023-02-07T12:00:08.147Z,89.40
2023-02-07T12:02:37.083Z,92.63
2023-02-07T12:05:15.419Z,90.47
2023-02-07T12:07:48.892Z,90.57
2023-02-07T12:10:22.985Z,92.75
2023-02-07T12:12:56.264Z,87.68
2023-02-07T12:15:28.915Z,85.05
2023-02-07T12:18:00.678Z,90.18
2023-02-07T12:20:31.596Z,83.93
2023-02-07T12:23:31.412Z,82.88
2023-02-07T12:25:56.229Z,75.72
2023-02-07T12:28:29.634Z,78.60
2023-02-07T12:31:04.036Z,73.63
2023-02-07T12:33:41.590Z,74.80
2023-02-07T12:36:13.954Z,76.32
2023-02-07T12:38:49.016Z,75.72
2023-02-07T12:41:21.334Z,77.10
2023-02-07T12:43:55.039Z,58.50
2023-02-07T12:46:29.896Z,71.70
2023-02-07T12:49:14.786Z,69.50
2023-02-07T12:51:53.379Z,55.47
2023-02-07T12:54:30.824Z,44.67
2023-02-07T12:57:02.503Z,27.10
2023-02-07T12:59:41.329Z,24.10
2023-02-07T13:02:25.494Z,22.80
2023-02-07T13:05:07.494Z,33.40
2023-02-07T13:07:43.235Z,63.42
2023-02-07T13:10:21.672Z,64.28
2023-02-07T13:12:55.435Z,57.60
2023-02-07T13:15:29.665Z,41.33
2023-02-07T13:18:05.106Z,29.40
2023-02-07T13:20:42.083Z,32.13
2023-02-07T13:23:16.286Z,27.73
2023-02-07T13:25:47.911Z,29.13
2023-02-07T13:28:20.894Z,26.55
2023-02-07T13:30:50.280Z,27.13
2023-02-07T13:33:29.898Z,25.33
2023-02-07T13:36:01.568Z,25.40
2023-02-07T13:38:40.991Z,25.90
2023-02-07T13:41:13.382Z,23.40
2023-02-07T13:44:01.635Z,25.02
2023-02-07T13:46:59.578Z,24.42
2023-02-07T13:49:50.295Z,23.88
2023-02-07T13:52:31.196Z,26.92
2023-02-07T13:55:06.918Z,29.38
2023-02-07T13:58:01.681Z,27.75
2023-02-07T14:00:32.570Z,42.25
2023-02-07T14:03:03.675Z,39.85
2023-02-07T14:05:34.150Z,29.85
2023-02-07T14:08:05.506Z,25.83
2023-02-07T14:10:48.159Z,26.88
2023-02-07T14:13:33.156Z,25.92
2023-02-07T14:16:08.025Z,22.55
2023-02-07T14:18:43.574Z,21.40
2023-02-07T14:21:34.488Z,21.35
2023-02-07T14:24:19.751Z,19.40
2023-02-07T14:27:01.175Z,20.77
2023-02-07T14:32:29.947Z,26.15
2023-02-07T14:35:04.772Z,25.60
2023-02-07T14:37:42.208Z,29.77
2023-02-07T14:40:21.478Z,30.45
2023-02-07T14:42:59.776Z,29.42
2023-02-07T14:45:32.287Z,33.25
2023-02-07T14:48:01.012Z,22.65
2023-02-07T14:50:33.615Z,21.55
2023-02-07T14:53:04.785Z,22.83
2023-02-07T14:58:05.019Z,21.27
2023-02-07T15:00:39.085Z,21.70
2023-02-07T15:03:13.962Z,24.55
2023-02-07T15:05:51.352Z,27.35
2023-02-07T15:08:21.297Z,25.90
2023-02-07T15:10:55.820Z,25.40
2023-02-07T15:13:27.515Z,24.92
2023-02-07T15:16:00.247Z,24.85
2023-02-07T15:18:30.808Z,24.92
2023-02-07T15:20:59.938Z,23.10
2023-02-07T15:23:29.910Z,23.23
2023-02-07T15:26:00.550Z,23.33
2023-02-07T15:28:30.512Z,22.88
2023-02-07T15:31:03.245Z,20.00
2023-02-07T15:33:36.970Z,20.38
2023-02-07T15:36:07.152Z,25.13
2023-02-07T15:38:35.621Z,27.70
2023-02-07T15:41:04.881Z,25.83
2023-02-07T15:43:34.885Z,26.85
2023-02-07T15:46:10.319Z,31.40
2023-02-07T15:48:49.828Z,35.75
2023-02-07T15:51:20.056Z,24.27
2023-02-07T15:53:51.449Z,21.33
2023-02-07T15:56:20.306Z,21.30
2023-02-07T15:58:49.761Z,22.05
2023-02-07T16:01:25.070Z,24.90
2023-02-07T16:03:56.216Z,24.17
2023-02-07T16:06:26.820Z,24.02
2023-02-07T16:08:57.354Z,28.67
2023-02-07T16:11:38.166Z,36.88
2023-02-07T16:14:18.477Z,26.58
2023-02-07T16:16:51.566Z,25.33
2023-02-07T16:19:21.841Z,24.45
2023-02-07T16:22:01.364Z,24.40
2023-02-07T16:24:29.670Z,25.40
2023-02-07T16:26:59.334Z,24.65
2023-02-07T16:29:28.281Z,25.83
2023-02-07T16:31:58.477Z,28.10
2023-02-07T16:34:26.836Z,34.67
2023-02-07T16:36:57.384Z,29.67
2023-02-07T16:39:25.668Z,32.83
2023-02-07T16:41:56.931Z,32.25
2023-02-07T16:44:26.426Z,30.52
2023-02-07T16:46:55.435Z,28.80
2023-02-07T16:49:27.075Z,26.88
2023-02-07T16:51:55.811Z,28.55
2023-02-07T16:54:24.132Z,27.90
2023-02-07T16:56:56.168Z,33.75
2023-02-07T16:59:27.217Z,34.40
2023-02-07T17:01:56.134Z,28.23
2023-02-07T17:04:26.117Z,34.45
2023-02-07T17:06:55.040Z,37.25
2023-02-07T17:09:24.655Z,33.25
2023-02-07T17:11:54.132Z,30.45
2023-02-07T17:14:23.043Z,32.47
2023-02-07T17:16:51.849Z,32.33
2023-02-07T17:19:24.093Z,34.63
2023-02-07T17:21:54.654Z,36.50
2023-02-07T17:24:23.081Z,37.58
2023-02-07T17:26:54.226Z,35.83
2023-02-07T17:29:22.712Z,33.75
2023-02-07T17:31:51.890Z,33.67
2023-02-07T17:34:20.374Z,33.55
2023-02-07T17:36:50.990Z,46.28
2023-02-07T17:39:20.956Z,37.40
2023-02-07T17:41:49.968Z,36.13
2023-02-07T17:44:21.485Z,40.67
2023-02-07T17:46:50.341Z,35.45
2023-02-07T17:49:19.097Z,35.97
2023-02-07T17:51:47.749Z,33.47
2023-02-07T17:54:16.205Z,33.17
2023-02-07T17:56:46.362Z,36.50
2023-02-07T17:59:23.980Z,34.10
2023-02-07T18:01:53.388Z,31.98
2023-02-07T18:04:21.983Z,34.80
2023-02-07T18:06:50.697Z,34.42
2023-02-07T18:09:20.351Z,32.40
2023-02-07T18:11:50.673Z,30.75
2023-02-07T18:14:18.997Z,32.25
2023-02-07T18:16:47.815Z,31.55
2023-02-07T18:19:17.764Z,33.63
2023-02-07T18:21:46.802Z,30.27
2023-02-07T18:24:15.586Z,33.50
2023-02-07T18:26:46.588Z,33.13
2023-02-07T18:29:17.141Z,33.25
2023-02-07T18:31:46.522Z,30.67
2023-02-07T18:34:14.855Z,31.73
2023-02-07T18:36:43.396Z,32.55
2023-02-07T18:39:12.422Z,34.80
2023-02-07T18:41:41.213Z,35.50
2023-02-07T18:44:09.636Z,36.50
2023-02-07T18:46:40.252Z,35.15
2023-02-07T18:49:08.837Z,35.83
2023-02-07T18:51:38.968Z,35.15
2023-02-07T18:54:07.569Z,34.42
2023-02-07T18:56:37.345Z,34.55
2023-02-07T18:59:06.046Z,31.73
2023-02-07T19:01:35.446Z,33.92
2023-02-07T19:04:05.751Z,33.80
2023-02-07T19:06:35.093Z,31.70
2023-02-07T19:09:03.588Z,34.47
2023-02-07T19:11:32.318Z,32.30
2023-02-07T19:14:00.666Z,35.22
2023-02-07T19:16:29.664Z,34.70
2023-02-07T19:19:02.226Z,33.03
2023-02-07T19:21:32.569Z,31.73
2023-02-07T19:24:05.664Z,31.50
2023-02-07T19:26:34.393Z,54.22
2023-02-07T19:29:05.373Z,36.90
2023-02-07T19:31:34.877Z,40.33
2023-02-07T19:34:03.403Z,42.25
2023-02-07T19:36:33.749Z,36.95
2023-02-07T19:39:02.418Z,32.67
2023-02-07T19:41:31.222Z,35.25
2023-02-07T19:43:59.743Z,31.55
2023-02-07T19:46:28.888Z,33.25
2023-02-07T19:48:57.173Z,32.60
2023-02-07T19:51:28.302Z,33.38
2023-02-07T19:53:58.191Z,33.78
2023-02-07T19:56:28.852Z,32.70
2023-02-07T19:58:57.043Z,34.00
2023-02-07T20:01:26.436Z,32.67
2023-02-07T20:03:55.833Z,33.83
2023-02-07T20:06:29.179Z,33.33
2023-02-07T20:08:59.778Z,32.88
2023-02-07T20:11:28.911Z,30.20
2023-02-07T20:14:03.279Z,32.75
2023-02-07T20:16:34.415Z,32.90
2023-02-07T20:19:05.582Z,32.95
2023-02-07T20:21:35.783Z,31.70
2023-02-07T20:24:06.604Z,30.95
2023-02-07T20:26:37.694Z,33.60
2023-02-07T20:29:09.564Z,33.00
2023-02-07T20:31:39.197Z,33.42
2023-02-07T20:34:07.981Z,33.00
2023-02-07T20:36:40.925Z,32.05
2023-02-07T20:39:12.750Z,33.28
2023-02-07T20:41:43.415Z,33.00
2023-02-07T20:44:13.876Z,34.08
2023-02-07T20:46:43.919Z,35.65
2023-02-07T20:49:14.578Z,32.88
2023-02-07T20:51:44.084Z,34.35
2023-02-07T20:54:13.911Z,33.58
2023-02-07T20:56:42.897Z,32.95
2023-02-07T20:59:15.660Z,31.42
2023-02-07T21:01:44.469Z,35.88
2023-02-07T21:04:12.897Z,34.17
2023-02-07T21:06:42.772Z,34.55
2023-02-07T21:09:11.967Z,34.80
2023-02-07T21:11:45.207Z,35.05
2023-02-07T21:14:15.625Z,35.92
2023-02-07T21:16:44.224Z,35.83
2023-02-07T21:19:12.637Z,35.20
2023-02-07T21:21:41.182Z,35.95
2023-02-07T21:24:09.616Z,36.03
2023-02-07T21:26:38.111Z,37.00
2023-02-07T21:29:08.222Z,36.92
2023-02-07T21:31:37.038Z,38.63
2023-02-07T21:34:05.475Z,38.60
2023-02-07T21:36:37.624Z,35.78
2023-02-07T21:39:09.259Z,36.05
2023-02-07T21:41:39.282Z,39.08
2023-02-07T21:44:09.107Z,38.80
2023-02-07T21:46:39.586Z,40.00
2023-02-07T21:49:10.330Z,38.03
2023-02-07T21:51:38.854Z,38.28
2023-02-07T21:54:08.060Z,40.42
2023-02-07T21:56:38.319Z,38.67
2023-02-07T21:59:09.639Z,38.15
2023-02-07T22:01:38.352Z,36.78
2023-02-07T22:04:10.385Z,38.38
2023-02-07T22:06:42.163Z,37.33
2023-02-07T22:09:12.585Z,35.60
2023-02-07T22:11:41.497Z,37.90
2023-02-07T22:14:12.504Z,36.58
2023-02-07T22:19:11.558Z,34.75
2023-02-07T22:21:40.627Z,35.47
2023-02-07T22:24:09.640Z,36.60
2023-02-07T22:26:38.114Z,37.72
2023-02-07T22:29:07.865Z,38.50
2023-02-07T22:31:39.147Z,36.90
2023-02-07T22:34:09.221Z,38.67
2023-02-07T22:36:39.439Z,37.20
2023-02-07T22:39:09.094Z,36.88
2023-02-07T22:41:37.783Z,36.33
2023-02-07T22:44:06.518Z,36.22
2023-02-07T22:46:35.134Z,37.45
2023-02-07T22:49:05.021Z,41.10
2023-02-07T22:51:35.777Z,41.00
2023-02-07T22:54:06.648Z,39.10
2023-02-07T22:56:36.586Z,42.90
2023-02-07T22:59:05.714Z,42.55
2023-02-07T23:01:36.695Z,38.22
2023-02-07T23:04:08.477Z,37.00
2023-02-07T23:06:37.477Z,42.30
2023-02-07T23:09:06.524Z,44.30
2023-02-07T23:11:35.446Z,40.95
2023-02-07T23:14:06.980Z,43.67
2023-02-07T23:16:36.630Z,43.25
2023-02-07T23:19:08.370Z,42.15
2023-02-07T23:21:37.047Z,42.50
2023-02-07T23:24:05.823Z,45.08
2023-02-07T23:26:35.541Z,47.97
2023-02-07T23:29:03.829Z,41.70
2023-02-07T23:31:32.522Z,49.75
2023-02-07T23:34:01.192Z,42.72
2023-02-07T23:36:31.206Z,37.50
2023-02-07T23:38:59.665Z,36.22
2023-02-07T23:41:28.450Z,34.40
2023-02-07T23:43:57.142Z,37.13
2023-02-07T23:46:25.844Z,38.42
2023-02-07T23:48:54.263Z,39.25
2023-02-07T23:51:23.112Z,42.60
2023-02-07T23:53:52.905Z,41.85
2023-02-07T23:56:22.923Z,39.20
2023-02-07T23:58:52.610Z,39.30
